Bookmark and Share
Track history (hours):
 

Audrey

Last reported at 2014-Apr-23 09:33 UTC. Time now 2014-Apr-23 09:35 UTC.
Position N 52°09' E 005°00'.

Length 85 m; draft 2.3 m.

Type: Other ship. MMSI: 244660106.

NotesDate/timePositionNaut miles runAvg speedWind from/ knotsBaromVisibWave heightAir tempDewpointWater temp
2014-Apr-23 09:33N 52°09' E 005°00'8 8.4
2014-Apr-23 08:33N 52°02' E 005°07'8 8.4
2014-Apr-23 07:33N 51°58' E 005°19'6 6.0
2014-Apr-23 06:33N 51°55' E 005°27'9 8.7
2014-Apr-23 05:33N 51°54' E 005°41'6 5.8
2014-Apr-23 04:33N 51°51' E 005°49'5 3.9
2014-Apr-23 03:11N 51°46' E 005°51'0 0.0
2014-Apr-22 22:29N 51°46' E 005°51'1 0.3
2014-Apr-22 19:31N 51°45' E 005°50'6 5.8
2014-Apr-22 18:33N 51°47' E 005°41'5 5.3
2014-Apr-22 17:33N 51°48' E 005°33'1 1.0
2014-Apr-22 16:33N 51°47' E 005°32'0 0.0
2014-Apr-22 15:33N 51°47' E 005°32'0 0.0
2014-Apr-22 14:33N 51°47' E 005°32'0 0.0
2014-Apr-22 13:32N 51°47' E 005°32'0 0.0
2014-Apr-22 12:33N 51°47' E 005°32'0 0.0
2014-Apr-22 11:33N 51°47' E 005°32'1 0.9
2014-Apr-22 10:33N 51°48' E 005°33'0 0.0
2014-Apr-22 09:33N 51°48' E 005°33'0 0.0
2014-Apr-22 08:33N 51°48' E 005°33'0 0.0
2014-Apr-22 07:33N 51°48' E 005°33'0 0.0
2014-Apr-22 06:33N 51°48' E 005°33'0 0.0
2014-Apr-22 05:33N 51°48' E 005°33'0 0.0
2014-Apr-22 04:33N 51°48' E 005°33'0 0.0
2014-Apr-22 03:33N 51°48' E 005°33'0 0.0
2014-Apr-22 02:33N 51°48' E 005°33'0 0.0
2014-Apr-22 01:33N 51°48' E 005°33'0 0.0
2014-Apr-22 00:33N 51°48' E 005°33'0 0.0
2014-Apr-21 23:33N 51°48' E 005°33'0 0.0
2014-Apr-21 22:33N 51°48' E 005°33'0 0.0
2014-Apr-21 21:33N 51°48' E 005°33'0 0.0
2014-Apr-21 20:33N 51°48' E 005°33'0 0.0
2014-Apr-21 19:33N 51°48' E 005°33'0 0.0
2014-Apr-21 18:33N 51°48' E 005°33'0 0.0
2014-Apr-21 17:33N 51°48' E 005°33'0 0.0
2014-Apr-21 16:33N 51°48' E 005°33'0 0.0
2014-Apr-21 15:33N 51°48' E 005°33'0 0.0
2014-Apr-21 14:33N 51°48' E 005°33'0 0.0
2014-Apr-21 13:33N 51°48' E 005°33'0 0.0
2014-Apr-21 12:33N 51°48' E 005°33'0 0.0
2014-Apr-21 11:33N 51°48' E 005°33'0 0.0
2014-Apr-21 10:33N 51°48' E 005°33'0 0.0
2014-Apr-21 09:33N 51°48' E 005°33'0 0.0
2014-Apr-21 08:33N 51°48' E 005°33'0 0.0
2014-Apr-21 07:33N 51°48' E 005°33'0 0.0
2014-Apr-21 06:33N 51°48' E 005°33'0 0.0
2014-Apr-21 05:33N 51°48' E 005°33'0 0.0
2014-Apr-21 04:33N 51°48' E 005°33'0 0.0
2014-Apr-21 03:33N 51°48' E 005°33'0 0.0
2014-Apr-21 02:33N 51°48' E 005°33'0 0.0
2014-Apr-21 01:33N 51°48' E 005°33'0 0.0
2014-Apr-21 00:33N 51°48' E 005°33'0 0.0
2014-Apr-20 23:33N 51°48' E 005°33'0 0.0
2014-Apr-20 22:33N 51°48' E 005°33'0 0.0
2014-Apr-20 21:33N 51°48' E 005°33'0 0.0
2014-Apr-20 20:33N 51°48' E 005°33'0 0.0
2014-Apr-20 19:33N 51°48' E 005°33'0 0.0
2014-Apr-20 18:33N 51°48' E 005°33'0 0.0
2014-Apr-20 17:33N 51°48' E 005°33'0 0.0
2014-Apr-20 16:33N 51°48' E 005°33'0 0.0
2014-Apr-20 15:34N 51°48' E 005°33'0 0.0
2014-Apr-20 14:33N 51°48' E 005°33'0 0.0
2014-Apr-20 13:34N 51°48' E 005°33'0 0.0
2014-Apr-20 12:33N 51°48' E 005°33'0 0.0
2014-Apr-20 11:33N 51°48' E 005°33'0 0.0
2014-Apr-20 10:33N 51°48' E 005°33'0 0.4
2014-Apr-20 09:33N 51°48' E 005°33'2 2.0
2014-Apr-20 08:33N 51°50' E 005°33'7 6.9
2014-Apr-20 07:33N 51°46' E 005°43'4 3.4
2014-Apr-20 06:30N 51°45' E 005°49'12 0.8
2014-Apr-19 15:26N 51°51' E 006°05'9 9.3
2014-Apr-19 14:29N 51°48' E 006°18'38 6.3
2014-Apr-19 08:33N 51°15' E 006°45'6 5.3
2014-Apr-19 07:26N 51°09' E 006°47'14 6.2
2014-Apr-19 05:12N 50°57' E 006°58'112 3.3
2014-Apr-17 19:31N 49°21' E 008°29'6 6.7
2014-Apr-17 18:33N 49°15' E 008°25'9 8.9
2014-Apr-17 17:33N 49°06' E 008°22'9 9.3
2014-Apr-17 16:33N 48°58' E 008°15'9 9.0
2014-Apr-17 15:31N 48°51' E 008°07'5 5.2
2014-Apr-17 14:31N 48°47' E 008°02'7 5.7
2014-Apr-17 13:16N 48°41' E 007°55'  
2014-Apr-14 11:33N 47°38' E 007°33'2 2.3
2014-Apr-14 10:33N 47°36' E 007°36'0 0.0
2014-Apr-14 09:33N 47°36' E 007°36'0 0.0
2014-Apr-14 08:33N 47°36' E 007°36'0 0.0
2014-Apr-14 07:33N 47°36' E 007°36'0 0.0
2014-Apr-14 06:33N 47°36' E 007°36'0 0.0
2014-Apr-14 05:33N 47°36' E 007°36'0 0.0
2014-Apr-13 22:33N 47°36' E 007°36'0 0.0
2014-Apr-13 21:33N 47°36' E 007°36'0 0.0
2014-Apr-13 20:33N 47°36' E 007°36'0 0.0
2014-Apr-13 19:33N 47°36' E 007°36'0 0.0
2014-Apr-13 18:33N 47°36' E 007°36'0 0.0
2014-Apr-13 17:33N 47°36' E 007°36'0 0.0
2014-Apr-13 16:33N 47°36' E 007°36'0 0.0
2014-Apr-13 15:33N 47°36' E 007°36'0 0.0
2014-Apr-13 14:33N 47°36' E 007°36'1 1.3
2014-Apr-13 13:33N 47°37' E 007°34'4 3.8
2014-Apr-13 12:32N 47°40' E 007°31'  

Dump ship's entire track history

sailing weather and tide predictions

Audrey — PD9331 — position and weather